createdAt,value
2023-06-13T00:00:42.403Z,94066.00
2023-06-13T00:01:42.469Z,94067.00
2023-06-13T00:02:42.569Z,94069.00
2023-06-13T00:03:42.598Z,94067.00
2023-06-13T00:04:42.625Z,94067.00
2023-06-13T00:05:42.674Z,94069.00
2023-06-13T00:06:42.747Z,94071.00
2023-06-13T00:07:42.874Z,94069.00
2023-06-13T00:08:42.865Z,94069.00
2023-06-13T00:09:42.902Z,94069.00
2023-06-13T00:10:42.940Z,94069.00
2023-06-13T00:11:43.000Z,94067.00
2023-06-13T00:12:43.059Z,94067.00
2023-06-13T00:13:43.114Z,94066.00
2023-06-13T00:14:43.165Z,94067.00
2023-06-13T00:15:43.209Z,94067.00
2023-06-13T00:16:43.275Z,94067.00
2023-06-13T00:17:43.377Z,94066.00
2023-06-13T00:18:43.393Z,94067.00
2023-06-13T00:19:43.446Z,94066.00
2023-06-13T00:20:43.509Z,94067.00
2023-06-13T00:21:43.572Z,94067.00
2023-06-13T00:22:43.653Z,94066.00
2023-06-13T00:23:43.724Z,94064.00
2023-06-13T00:24:43.777Z,94066.00
2023-06-13T00:25:43.834Z,94064.00
2023-06-13T00:26:43.911Z,94066.00
2023-06-13T00:27:43.954Z,94066.00
2023-06-13T00:28:44.016Z,94067.00
2023-06-13T00:29:44.058Z,94066.00
2023-06-13T00:30:44.182Z,94067.00
2023-06-13T00:31:44.198Z,94067.00
2023-06-13T00:32:44.270Z,94067.00
2023-06-13T00:33:44.301Z,94067.00
2023-06-13T00:34:44.368Z,94066.00
2023-06-13T00:35:44.423Z,94066.00
2023-06-13T00:36:44.510Z,94067.00
2023-06-13T00:37:44.600Z,94067.00
2023-06-13T00:38:44.610Z,94069.00
2023-06-13T00:39:44.698Z,94069.00
2023-06-13T00:40:44.718Z,94069.00
2023-06-13T00:41:44.795Z,94069.00
2023-06-13T00:42:44.858Z,94066.00
2023-06-13T00:43:44.907Z,94067.00
2023-06-13T00:44:44.978Z,94064.00
2023-06-13T00:45:45.028Z,94064.00
2023-06-13T00:46:45.109Z,94064.00
2023-06-13T00:47:45.312Z,94064.00
2023-06-13T00:48:45.229Z,94062.00
2023-06-13T00:49:45.300Z,94060.00
2023-06-13T00:50:45.346Z,94060.00
2023-06-13T00:51:45.417Z,94062.00
2023-06-13T00:52:45.459Z,94060.00
2023-06-13T00:53:45.532Z,94060.00
2023-06-13T00:54:45.587Z,94058.00
2023-06-13T00:55:45.660Z,94058.00
2023-06-13T00:56:45.716Z,94060.00
2023-06-13T00:57:45.764Z,94060.00
2023-06-13T00:58:45.846Z,94060.00
2023-06-13T00:59:45.917Z,94060.00
2023-06-13T01:00:45.982Z,94056.00
2023-06-13T01:01:46.117Z,94058.00
2023-06-13T01:02:46.179Z,94056.00
2023-06-13T01:03:46.146Z,94056.00
2023-06-13T01:04:46.221Z,94060.00
2023-06-13T01:05:46.262Z,94056.00
2023-06-13T01:06:46.340Z,94056.00
2023-06-13T01:07:46.392Z,94058.00
2023-06-13T01:08:46.460Z,94058.00
2023-06-13T01:09:46.492Z,94058.00
2023-06-13T01:10:46.565Z,94056.00
2023-06-13T01:11:46.621Z,94052.00
2023-06-13T01:12:46.718Z,94054.00
2023-06-13T01:13:46.763Z,94050.00
2023-06-13T01:14:46.795Z,94050.00
2023-06-13T01:15:46.861Z,94052.00
2023-06-13T01:16:46.979Z,94050.00
2023-06-13T01:17:47.010Z,94048.00
2023-06-13T01:18:47.027Z,94048.00
2023-06-13T01:19:47.098Z,94048.00
2023-06-13T01:20:47.144Z,94050.00
2023-06-13T01:21:47.209Z,94048.00
2023-06-13T01:22:47.280Z,94044.00
2023-06-13T01:23:47.365Z,94046.00
2023-06-13T01:24:47.398Z,94044.00
2023-06-13T01:25:47.458Z,94044.00
2023-06-13T01:26:47.495Z,94044.00
2023-06-13T01:27:47.557Z,94042.00
2023-06-13T01:28:47.601Z,94042.00
2023-06-13T01:29:47.649Z,94042.00
2023-06-13T01:30:47.700Z,94042.00
2023-06-13T01:31:47.799Z,94040.00
2023-06-13T01:32:47.874Z,94036.00
2023-06-13T01:33:47.870Z,94036.00
2023-06-13T01:34:47.902Z,94034.00
2023-06-13T01:35:47.973Z,94034.00
2023-06-13T01:36:48.052Z,94034.00
2023-06-13T01:37:48.069Z,94034.00
2023-06-13T01:38:48.116Z,94036.00
2023-06-13T01:39:48.149Z,94034.00
2023-06-13T01:40:48.205Z,94034.00
2023-06-13T01:41:48.248Z,94034.00
2023-06-13T01:42:48.309Z,94034.00
2023-06-13T01:43:48.350Z,94032.00
2023-06-13T01:44:48.414Z,94032.00
2023-06-13T01:45:48.482Z,94032.00
2023-06-13T01:46:48.499Z,94034.00
2023-06-13T01:47:48.586Z,94030.00
2023-06-13T01:48:48.560Z,94032.00
2023-06-13T01:49:48.621Z,94030.00
2023-06-13T01:50:48.684Z,94028.00
2023-06-13T01:51:48.727Z,94030.00
2023-06-13T01:52:48.766Z,94028.00
2023-06-13T01:53:48.820Z,94032.00
2023-06-13T01:54:48.861Z,94024.00
2023-06-13T01:55:48.870Z,94026.00
2023-06-13T01:56:48.920Z,94024.00
2023-06-13T01:57:48.979Z,94022.00
2023-06-13T01:58:48.979Z,94022.00
2023-06-13T01:59:49.010Z,94022.00
2023-06-13T02:00:49.055Z,94024.00
2023-06-13T02:01:49.199Z,94024.00
2023-06-13T02:02:49.230Z,94028.00
2023-06-13T02:03:49.211Z,94026.00
2023-06-13T02:04:49.186Z,94024.00
2023-06-13T02:05:49.230Z,94028.00
2023-06-13T02:06:49.267Z,94024.00
2023-06-13T02:07:49.311Z,94026.00
2023-06-13T02:08:49.353Z,94024.00
2023-06-13T02:09:49.393Z,94024.00
2023-06-13T02:10:49.428Z,94024.00
2023-06-13T02:11:49.467Z,94024.00
2023-06-13T02:12:49.487Z,94022.00
2023-06-13T02:13:49.532Z,94022.00
2023-06-13T02:14:49.521Z,94020.00
2023-06-13T02:15:49.556Z,94022.00
2023-06-13T02:16:49.707Z,94022.00
2023-06-13T02:17:49.618Z,94022.00
2023-06-13T02:18:49.581Z,94022.00
2023-06-13T02:19:49.628Z,94019.00
2023-06-13T02:20:49.652Z,94020.00
2023-06-13T02:21:49.671Z,94020.00
2023-06-13T02:22:49.714Z,94019.00
2023-06-13T02:23:49.764Z,94020.00
2023-06-13T02:24:49.770Z,94019.00
2023-06-13T02:25:49.727Z,94017.00
2023-06-13T02:26:49.734Z,94019.00
2023-06-13T02:27:49.736Z,94017.00
2023-06-13T02:28:49.746Z,94017.00
2023-06-13T02:29:49.729Z,94017.00
2023-06-13T02:30:49.746Z,94015.00
2023-06-13T02:31:49.775Z,94015.00
2023-06-13T02:32:49.810Z,94015.00
2023-06-13T02:33:49.742Z,94013.00
2023-06-13T02:34:49.754Z,94011.00
2023-06-13T02:35:49.835Z,94011.00
2023-06-13T02:36:49.763Z,94011.00
2023-06-13T02:37:49.742Z,94011.00
2023-06-13T02:38:49.756Z,94007.00
2023-06-13T02:39:49.753Z,94009.00
2023-06-13T02:40:49.777Z,94009.00
2023-06-13T02:41:49.766Z,94007.00
2023-06-13T02:42:49.745Z,94007.00
2023-06-13T02:43:49.764Z,94007.00
2023-06-13T02:44:49.752Z,94007.00
2023-06-13T02:45:49.741Z,94007.00
2023-06-13T02:46:49.727Z,94005.00
2023-06-13T02:47:49.922Z,94007.00
2023-06-13T02:48:49.869Z,94003.00
2023-06-13T02:49:49.769Z,94003.00
2023-06-13T02:50:49.762Z,94003.00
2023-06-13T02:51:49.742Z,94001.00
2023-06-13T02:52:52.734Z,94003.00
2023-06-13T02:53:49.719Z,94003.00
2023-06-13T02:54:49.733Z,94001.00
2023-06-13T02:55:49.699Z,94003.00
2023-06-13T02:56:49.694Z,94003.00
2023-06-13T02:57:49.730Z,94003.00
2023-06-13T02:58:49.689Z,94003.00
2023-06-13T02:59:49.693Z,94001.00
2023-06-13T03:00:49.719Z,94003.00
2023-06-13T03:01:49.664Z,94003.00
2023-06-13T03:02:49.733Z,94009.00
2023-06-13T03:03:49.687Z,94003.00
2023-06-13T03:04:49.661Z,94003.00
2023-06-13T03:05:49.668Z,94005.00
2023-06-13T03:06:49.670Z,94005.00
2023-06-13T03:07:49.657Z,94005.00
2023-06-13T03:08:49.650Z,94005.00
2023-06-13T03:09:49.607Z,94009.00
2023-06-13T03:10:49.599Z,94009.00
2023-06-13T03:11:49.603Z,94011.00
2023-06-13T03:12:49.596Z,94011.00
2023-06-13T03:13:49.576Z,94013.00
2023-06-13T03:14:49.586Z,94015.00
2023-06-13T03:15:49.565Z,94019.00
2023-06-13T03:16:49.590Z,94019.00
2023-06-13T03:17:49.612Z,94020.00
2023-06-13T03:18:49.545Z,94022.00
2023-06-13T03:19:51.233Z,94020.00
2023-06-13T03:20:50.536Z,94019.00
2023-06-13T03:21:49.532Z,94020.00
2023-06-13T03:22:49.537Z,94020.00
2023-06-13T03:23:49.559Z,94020.00
2023-06-13T03:24:49.506Z,94020.00
2023-06-13T03:25:49.527Z,94020.00
2023-06-13T03:26:49.512Z,94020.00
2023-06-13T03:27:49.508Z,94020.00
2023-06-13T03:28:49.514Z,94020.00
2023-06-13T03:29:49.494Z,94022.00
2023-06-13T03:30:49.507Z,94022.00
2023-06-13T03:31:49.464Z,94020.00
2023-06-13T03:32:49.497Z,94022.00
2023-06-13T03:33:49.470Z,94019.00
2023-06-13T03:34:49.464Z,94022.00
2023-06-13T03:35:49.443Z,94024.00
2023-06-13T03:36:49.438Z,94022.00
2023-06-13T03:37:49.422Z,94024.00
2023-06-13T03:38:49.415Z,94024.00
2023-06-13T03:39:49.434Z,94020.00
2023-06-13T03:40:49.403Z,94022.00
2023-06-13T03:41:49.412Z,94028.00
2023-06-13T03:42:49.401Z,94028.00
2023-06-13T03:43:49.397Z,94024.00
2023-06-13T03:44:49.463Z,94024.00
2023-06-13T03:45:49.394Z,94026.00
2023-06-13T03:46:49.358Z,94026.00
2023-06-13T03:47:49.535Z,94026.00
2023-06-13T03:48:49.481Z,94024.00
2023-06-13T03:49:49.347Z,94026.00
2023-06-13T03:50:49.372Z,94030.00
2023-06-13T03:51:49.354Z,94022.00
2023-06-13T03:52:49.327Z,94024.00
2023-06-13T03:53:49.317Z,94024.00
2023-06-13T03:54:49.315Z,94022.00
2023-06-13T03:55:49.305Z,94022.00
2023-06-13T03:56:49.302Z,94020.00
2023-06-13T03:57:49.301Z,94020.00
2023-06-13T03:58:49.311Z,94022.00
2023-06-13T03:59:49.310Z,94022.00
2023-06-13T04:00:49.279Z,94022.00
2023-06-13T04:01:49.308Z,94024.00
2023-06-13T04:02:49.328Z,94026.00
2023-06-13T04:03:49.441Z,94026.00
2023-06-13T04:04:49.274Z,94032.00
2023-06-13T04:05:49.272Z,94026.00
2023-06-13T04:06:49.247Z,94028.00
2023-06-13T04:07:49.247Z,94028.00
2023-06-13T04:08:49.239Z,94028.00
2023-06-13T04:09:50.841Z,94026.00
2023-06-13T04:10:49.230Z,94028.00
2023-06-13T04:11:49.224Z,94028.00
2023-06-13T04:12:49.196Z,94028.00
2023-06-13T04:13:49.212Z,94026.00
2023-06-13T04:14:49.188Z,94030.00
2023-06-13T04:15:49.179Z,94030.00
2023-06-13T04:16:49.369Z,94030.00
2023-06-13T04:17:49.255Z,94032.00
2023-06-13T04:18:49.157Z,94034.00
2023-06-13T04:19:49.165Z,94032.00
2023-06-13T04:20:49.173Z,94032.00
2023-06-13T04:21:49.145Z,94032.00
2023-06-13T04:22:49.136Z,94038.00
2023-06-13T04:23:49.160Z,94034.00
2023-06-13T04:24:49.120Z,94036.00
2023-06-13T04:25:49.101Z,94034.00
2023-06-13T04:26:49.109Z,94038.00
2023-06-13T04:27:49.105Z,94038.00
2023-06-13T04:28:49.139Z,94038.00
2023-06-13T04:29:49.106Z,94038.00
2023-06-13T04:30:49.077Z,94038.00
2023-06-13T04:31:49.114Z,94038.00
2023-06-13T04:32:51.774Z,94038.00
2023-06-13T04:33:49.150Z,94040.00
2023-06-13T04:34:49.071Z,94040.00
2023-06-13T04:35:49.059Z,94040.00
2023-06-13T04:36:49.063Z,94040.00
2023-06-13T04:37:49.048Z,94038.00
2023-06-13T04:38:49.026Z,94036.00
2023-06-13T04:39:49.036Z,94036.00
2023-06-13T04:40:49.028Z,94036.00
2023-06-13T04:41:49.026Z,94034.00
2023-06-13T04:42:49.142Z,94036.00
2023-06-13T04:43:48.997Z,94040.00
2023-06-13T04:44:48.993Z,94038.00
2023-06-13T04:45:49.006Z,94040.00
2023-06-13T04:46:48.974Z,94044.00
2023-06-13T04:47:56.319Z,94040.00
2023-06-13T04:48:49.970Z,94048.00
2023-06-13T04:49:48.967Z,94052.00
2023-06-13T04:50:48.962Z,94052.00
2023-06-13T04:51:48.940Z,94056.00
2023-06-13T04:52:48.943Z,94058.00
2023-06-13T04:53:48.926Z,94056.00
2023-06-13T04:54:48.924Z,94058.00
2023-06-13T04:55:48.949Z,94056.00
2023-06-13T04:56:48.939Z,94060.00
2023-06-13T04:57:48.921Z,94060.00
2023-06-13T04:58:48.894Z,94058.00
2023-06-13T04:59:48.910Z,94060.00
2023-06-13T05:00:48.919Z,94056.00
2023-06-13T05:01:49.333Z,94060.00
2023-06-13T05:02:48.889Z,94062.00
2023-06-13T05:03:48.947Z,94060.00
2023-06-13T05:04:49.018Z,94062.00
2023-06-13T05:05:49.010Z,94060.00
2023-06-13T05:06:49.066Z,94066.00
2023-06-13T05:07:49.436Z,94064.00
2023-06-13T05:08:49.157Z,94064.00
2023-06-13T05:09:49.240Z,94066.00
2023-06-13T05:10:49.294Z,94064.00
2023-06-13T05:11:49.357Z,94064.00
2023-06-13T05:12:49.445Z,94062.00
2023-06-13T05:13:49.467Z,94060.00
2023-06-13T05:14:49.533Z,94058.00
2023-06-13T05:15:49.630Z,94058.00
2023-06-13T05:16:49.695Z,94056.00
2023-06-13T05:17:49.794Z,94054.00
2023-06-13T05:18:49.773Z,94058.00
2023-06-13T05:19:49.840Z,94054.00
2023-06-13T05:20:49.931Z,94054.00
2023-06-13T05:21:49.989Z,94054.00
2023-06-13T05:22:50.087Z,94056.00
2023-06-13T05:23:50.150Z,94052.00
2023-06-13T05:24:50.185Z,94056.00
2023-06-13T05:25:50.232Z,94056.00
2023-06-13T05:26:50.313Z,94056.00
2023-06-13T05:27:50.449Z,94056.00
2023-06-13T05:28:50.385Z,94054.00
2023-06-13T05:29:50.785Z,94058.00
2023-06-13T05:30:50.497Z,94056.00
2023-06-13T05:31:50.534Z,94054.00
2023-06-13T05:32:50.529Z,94054.00
2023-06-13T05:33:50.541Z,94054.00
2023-06-13T05:34:50.803Z,94054.00
2023-06-13T05:35:57.868Z,94052.00
2023-06-13T05:36:51.627Z,94048.00
2023-06-13T05:37:50.622Z,94046.00
2023-06-13T05:38:50.632Z,94046.00
2023-06-13T05:39:50.628Z,94044.00
2023-06-13T05:40:50.594Z,94046.00
2023-06-13T05:41:50.675Z,94042.00
2023-06-13T05:42:50.596Z,94036.00
2023-06-13T05:43:50.605Z,94038.00
2023-06-13T05:44:50.822Z,94038.00
2023-06-13T05:45:50.578Z,94036.00
2023-06-13T05:46:50.573Z,94040.00
2023-06-13T05:47:50.611Z,94034.00
2023-06-13T05:48:50.581Z,94034.00
2023-06-13T05:49:50.798Z,94036.00
2023-06-13T05:50:50.552Z,94034.00
2023-06-13T05:51:50.540Z,94034.00
2023-06-13T05:52:50.507Z,94030.00
2023-06-13T05:53:50.524Z,94036.00
2023-06-13T05:54:50.500Z,94034.00
2023-06-13T05:55:50.515Z,94036.00
2023-06-13T05:56:50.516Z,94040.00
2023-06-13T05:57:50.588Z,94038.00
2023-06-13T05:58:50.645Z,94034.00
2023-06-13T05:59:50.690Z,94034.00
2023-06-13T06:00:50.782Z,94034.00
2023-06-13T06:01:50.874Z,94034.00
2023-06-13T06:02:50.924Z,94030.00
2023-06-13T06:03:50.966Z,94034.00
2023-06-13T06:04:51.326Z,94034.00
2023-06-13T06:05:51.030Z,94026.00
2023-06-13T06:06:51.067Z,94030.00
2023-06-13T06:07:51.128Z,94030.00
2023-06-13T06:08:51.152Z,94026.00
2023-06-13T06:09:51.315Z,94026.00
2023-06-13T06:10:51.261Z,94024.00
2023-06-13T06:11:51.305Z,94022.00
2023-06-13T06:12:51.308Z,94022.00
2023-06-13T06:13:51.365Z,94024.00
2023-06-13T06:14:51.398Z,94024.00
2023-06-13T06:15:51.420Z,94022.00
2023-06-13T06:16:51.520Z,94019.00
2023-06-13T06:17:51.646Z,94020.00
2023-06-13T06:18:51.712Z,94022.00
2023-06-13T06:19:51.820Z,94017.00
2023-06-13T06:20:51.538Z,94013.00
2023-06-13T06:21:51.555Z,94013.00
2023-06-13T06:22:51.602Z,94015.00
2023-06-13T06:23:51.723Z,94009.00
2023-06-13T06:24:51.620Z,94009.00
2023-06-13T06:25:51.610Z,94005.00
2023-06-13T06:26:51.618Z,94011.00
2023-06-13T06:27:51.628Z,94007.00
2023-06-13T06:28:51.649Z,94009.00
2023-06-13T06:29:51.833Z,94007.00
2023-06-13T06:30:51.661Z,94011.00
2023-06-13T06:31:51.672Z,94009.00
2023-06-13T06:32:51.717Z,94007.00
2023-06-13T06:33:52.757Z,94007.00
2023-06-13T06:34:51.814Z,94009.00
2023-06-13T06:35:51.712Z,94011.00
2023-06-13T06:36:51.725Z,94011.00
2023-06-13T06:37:51.720Z,94011.00
2023-06-13T06:38:51.734Z,94009.00
2023-06-13T06:39:51.810Z,94011.00
2023-06-13T06:40:51.773Z,94009.00
2023-06-13T06:41:51.771Z,94013.00
2023-06-13T06:42:51.765Z,94013.00
2023-06-13T06:43:51.796Z,94011.00
2023-06-13T06:44:51.825Z,94011.00
2023-06-13T06:45:51.827Z,94007.00
2023-06-13T06:46:51.880Z,94005.00
2023-06-13T06:47:51.878Z,94009.00
2023-06-13T06:48:51.818Z,94009.00
2023-06-13T06:49:51.832Z,94007.00
2023-06-13T06:50:51.800Z,94007.00
2023-06-13T06:51:51.785Z,94003.00
2023-06-13T06:52:51.817Z,94001.00
2023-06-13T06:53:51.801Z,93999.00
2023-06-13T06:54:51.831Z,93999.00
2023-06-13T06:55:51.816Z,93999.00
2023-06-13T06:56:51.866Z,93999.00
2023-06-13T06:57:51.900Z,94001.00
2023-06-13T06:58:51.966Z,93997.00
2023-06-13T06:59:52.012Z,93993.00
2023-06-13T07:00:52.074Z,93993.00
2023-06-13T07:01:52.174Z,93993.00
2023-06-13T07:02:52.240Z,93989.00
2023-06-13T07:03:52.261Z,93991.00
2023-06-13T07:04:52.347Z,93989.00
2023-06-13T07:05:52.356Z,93989.00
2023-06-13T07:06:52.417Z,93987.00
2023-06-13T07:07:52.452Z,93987.00
2023-06-13T07:08:52.526Z,93987.00
2023-06-13T07:09:52.841Z,93983.00
2023-06-13T07:10:52.924Z,93979.00
2023-06-13T07:11:52.703Z,93983.00
2023-06-13T07:12:52.799Z,93981.00
2023-06-13T07:13:52.837Z,93983.00
2023-06-13T07:14:52.892Z,93983.00
2023-06-13T07:15:52.986Z,93981.00
2023-06-13T07:16:53.052Z,93977.00
2023-06-13T07:17:53.093Z,93977.00
2023-06-13T07:18:53.122Z,93979.00
2023-06-13T07:19:53.343Z,93979.00
2023-06-13T07:20:53.192Z,93977.00
2023-06-13T07:21:53.257Z,93973.00
2023-06-13T07:22:53.287Z,93973.00
2023-06-13T07:24:06.083Z,93973.00
2023-06-13T07:24:54.335Z,93977.00
2023-06-13T07:25:53.331Z,93975.00
2023-06-13T07:26:53.307Z,93971.00
2023-06-13T07:27:53.297Z,93971.00
2023-06-13T07:28:53.295Z,93969.00
2023-06-13T07:29:53.343Z,93967.00
2023-06-13T07:30:53.309Z,93965.00
2023-06-13T07:31:53.318Z,93967.00
2023-06-13T07:32:53.345Z,93965.00
2023-06-13T07:33:53.287Z,93964.00
2023-06-13T07:35:04.087Z,93964.00
2023-06-13T07:35:54.235Z,93965.00
2023-06-13T07:36:53.380Z,93964.00
2023-06-13T07:37:53.356Z,93962.00
2023-06-13T07:38:53.230Z,93962.00
2023-06-13T07:39:53.237Z,93962.00
2023-06-13T07:40:53.217Z,93956.00
2023-06-13T07:41:53.205Z,93956.00
2023-06-13T07:42:53.210Z,93952.00
2023-06-13T07:43:53.183Z,93950.00
2023-06-13T07:44:53.291Z,93948.00
2023-06-13T07:45:53.207Z,93944.00
2023-06-13T07:46:53.179Z,93948.00
2023-06-13T07:47:53.189Z,93946.00
2023-06-13T07:48:53.174Z,93942.00
2023-06-13T07:49:53.369Z,93938.00
2023-06-13T07:50:53.244Z,93940.00
2023-06-13T07:51:53.202Z,93938.00
2023-06-13T07:52:53.231Z,93932.00
2023-06-13T07:53:53.312Z,93934.00
2023-06-13T07:54:53.380Z,93932.00
2023-06-13T07:55:53.349Z,93932.00
2023-06-13T07:56:53.399Z,93928.00
2023-06-13T07:57:59.553Z,93928.00
2023-06-13T07:58:54.426Z,93926.00
2023-06-13T07:59:53.414Z,93924.00
2023-06-13T08:00:53.427Z,93922.00
2023-06-13T08:01:53.403Z,93918.00
2023-06-13T08:02:54.498Z,93918.00
2023-06-13T08:03:53.492Z,93920.00
2023-06-13T08:04:55.128Z,93918.00
2023-06-13T08:05:53.398Z,93918.00
2023-06-13T08:06:53.371Z,93918.00
2023-06-13T08:07:53.474Z,93917.00
2023-06-13T08:08:53.863Z,93917.00
2023-06-13T08:09:53.910Z,93915.00
2023-06-13T08:10:53.374Z,93913.00
2023-06-13T08:11:54.005Z,93911.00
2023-06-13T08:12:53.346Z,93909.00
2023-06-13T08:13:53.503Z,93909.00
2023-06-13T08:14:54.047Z,93903.00
2023-06-13T08:15:53.448Z,93905.00
2023-06-13T08:16:53.530Z,93903.00
2023-06-13T08:17:53.529Z,93899.00
2023-06-13T08:18:53.418Z,93899.00
2023-06-13T08:19:53.874Z,93897.00
2023-06-13T08:20:53.409Z,93899.00
2023-06-13T08:21:53.402Z,93895.00
2023-06-13T08:22:53.413Z,93897.00
2023-06-13T08:23:53.437Z,93901.00
2023-06-13T08:24:53.883Z,93899.00
2023-06-13T08:25:53.579Z,93901.00
2023-06-13T08:26:53.884Z,93897.00
2023-06-13T08:27:53.563Z,93899.00
2023-06-13T08:28:53.528Z,93899.00
2023-06-13T08:29:53.522Z,93899.00
2023-06-13T08:30:56.239Z,93899.00
2023-06-13T08:31:54.639Z,93895.00
2023-06-13T08:32:53.721Z,93891.00
2023-06-13T08:34:08.009Z,93889.00
2023-06-13T08:34:54.513Z,93885.00
2023-06-13T08:35:53.480Z,93883.00
2023-06-13T08:36:53.518Z,93881.00
2023-06-13T08:37:53.496Z,93881.00
2023-06-13T08:38:53.497Z,93875.00
2023-06-13T08:39:56.583Z,93877.00
2023-06-13T08:40:53.467Z,93875.00
2023-06-13T08:41:53.723Z,93871.00
2023-06-13T08:42:53.461Z,93864.00
2023-06-13T08:43:54.569Z,93864.00
2023-06-13T08:44:53.431Z,93875.00
2023-06-13T08:45:53.448Z,93860.00
2023-06-13T08:46:55.645Z,93858.00
2023-06-13T08:47:53.680Z,93858.00
2023-06-13T08:48:53.602Z,93858.00
2023-06-13T08:49:53.627Z,93854.00
2023-06-13T08:50:53.699Z,93854.00
2023-06-13T08:51:53.760Z,93850.00
2023-06-13T08:52:53.804Z,93856.00
2023-06-13T08:53:53.866Z,93854.00
2023-06-13T08:55:05.176Z,93852.00
2023-06-13T08:56:04.457Z,93846.00
2023-06-13T08:56:54.920Z,93846.00
2023-06-13T08:57:53.899Z,93844.00
2023-06-13T08:58:53.896Z,93840.00
2023-06-13T08:59:53.922Z,93838.00
2023-06-13T09:00:53.972Z,93840.00
2023-06-13T09:01:53.899Z,93836.00
2023-06-13T09:02:53.991Z,93832.00
2023-06-13T09:03:53.914Z,93830.00
2023-06-13T09:04:57.250Z,93832.00
2023-06-13T09:05:53.885Z,93828.00
2023-06-13T09:06:53.845Z,93830.00
2023-06-13T09:07:59.375Z,93830.00
2023-06-13T09:08:54.864Z,93830.00
2023-06-13T09:09:53.842Z,93832.00
2023-06-13T09:10:54.402Z,93834.00
2023-06-13T09:11:53.862Z,93830.00
2023-06-13T09:12:53.846Z,93825.00
2023-06-13T09:13:53.817Z,93826.00
2023-06-13T09:14:54.381Z,93823.00
2023-06-13T09:15:53.805Z,93826.00
2023-06-13T09:16:55.050Z,93821.00
2023-06-13T09:18:53.860Z,93821.00
2023-06-13T09:19:53.928Z,93815.00
2023-06-13T09:20:53.921Z,93815.00
2023-06-13T09:21:53.982Z,93813.00
2023-06-13T09:22:54.055Z,93821.00
2023-06-13T09:23:54.076Z,93817.00
2023-06-13T09:24:54.122Z,93813.00
2023-06-13T09:25:54.201Z,93811.00
2023-06-13T09:26:54.239Z,93813.00
2023-06-13T09:27:54.977Z,93809.00
2023-06-13T09:28:54.332Z,93811.00
2023-06-13T09:29:54.403Z,93811.00
2023-06-13T09:30:54.476Z,93803.00
2023-06-13T09:31:54.447Z,93809.00
2023-06-13T09:32:54.700Z,93809.00
2023-06-13T09:33:54.594Z,93803.00
2023-06-13T09:34:55.419Z,93805.00
2023-06-13T09:35:54.765Z,93799.00
2023-06-13T09:36:54.793Z,93795.00
2023-06-13T09:37:54.774Z,93789.00
2023-06-13T09:38:55.567Z,93795.00
2023-06-13T09:40:09.812Z,93791.00
2023-06-13T09:40:55.717Z,93789.00
2023-06-13T09:41:54.712Z,93781.00
2023-06-13T09:43:05.070Z,93779.00
2023-06-13T09:43:55.921Z,93779.00
2023-06-13T09:45:55.673Z,93776.00
2023-06-13T09:46:54.909Z,93774.00
2023-06-13T09:47:54.736Z,93772.00
2023-06-13T09:48:54.932Z,93770.00
2023-06-13T09:49:57.126Z,93770.00
2023-06-13T09:50:55.246Z,93768.00
2023-06-13T09:51:54.893Z,93766.00
2023-06-13T09:52:54.899Z,93764.00
2023-06-13T09:53:55.143Z,93768.00
2023-06-13T09:54:55.103Z,93768.00
2023-06-13T09:55:55.328Z,93766.00
2023-06-13T09:56:55.337Z,93760.00
2023-06-13T09:58:10.776Z,93762.00
2023-06-13T09:58:56.065Z,93760.00
2023-06-13T09:59:55.053Z,93764.00
2023-06-13T10:00:55.050Z,93760.00
2023-06-13T10:01:55.042Z,93760.00
2023-06-13T10:02:57.528Z,93756.00
2023-06-13T10:03:55.180Z,93754.00
2023-06-13T10:04:55.473Z,93750.00
2023-06-13T10:05:55.040Z,93746.00
2023-06-13T10:06:55.011Z,93756.00
2023-06-13T10:07:55.006Z,93742.00
2023-06-13T10:08:55.153Z,93742.00
2023-06-13T10:09:55.002Z,93740.00
2023-06-13T10:10:54.977Z,93740.00
2023-06-13T10:11:54.965Z,93738.00
2023-06-13T10:12:54.966Z,93740.00
2023-06-13T10:13:54.995Z,93738.00
2023-06-13T10:14:55.422Z,93736.00
2023-06-13T10:15:54.972Z,93734.00
2023-06-13T10:17:07.682Z,93731.00
2023-06-13T10:17:56.143Z,93732.00
2023-06-13T10:18:54.978Z,93732.00
2023-06-13T10:19:54.937Z,93731.00
2023-06-13T10:20:54.974Z,93734.00
2023-06-13T10:21:55.942Z,93732.00
2023-06-13T10:22:54.912Z,93729.00
2023-06-13T10:23:54.920Z,93729.00
2023-06-13T10:24:54.893Z,93727.00
2023-06-13T10:25:54.951Z,93731.00
2023-06-13T10:26:54.867Z,93725.00
2023-06-13T10:27:54.893Z,93731.00
2023-06-13T10:28:54.906Z,93729.00
2023-06-13T10:29:54.862Z,93729.00
2023-06-13T10:30:54.861Z,93723.00
2023-06-13T10:31:54.898Z,93725.00
2023-06-13T10:32:54.911Z,93723.00
2023-06-13T10:33:54.819Z,93723.00
2023-06-13T10:34:55.116Z,93719.00
2023-06-13T10:35:54.944Z,93723.00
2023-06-13T10:36:58.320Z,93717.00
2023-06-13T10:37:55.858Z,93713.00
2023-06-13T10:38:54.835Z,93713.00
2023-06-13T10:39:54.800Z,93711.00
2023-06-13T10:40:54.812Z,93705.00
2023-06-13T10:41:54.773Z,93703.00
2023-06-13T10:42:54.768Z,93705.00
2023-06-13T10:43:54.773Z,93699.00
2023-06-13T10:44:54.773Z,93697.00
2023-06-13T10:45:54.798Z,93699.00
2023-06-13T10:46:54.751Z,93695.00
2023-06-13T10:47:54.801Z,93703.00
2023-06-13T10:48:54.732Z,93697.00
2023-06-13T10:49:54.724Z,93693.00
2023-06-13T10:50:54.722Z,93693.00
2023-06-13T10:51:54.789Z,93695.00
2023-06-13T10:52:54.743Z,93691.00
2023-06-13T10:53:54.746Z,93693.00
2023-06-13T10:54:54.748Z,93691.00
2023-06-13T10:55:54.764Z,93691.00
2023-06-13T10:56:54.802Z,93693.00
2023-06-13T10:57:54.821Z,93689.00
2023-06-13T10:58:54.844Z,93687.00
2023-06-13T10:59:54.865Z,93685.00
2023-06-13T11:00:54.924Z,93683.00
2023-06-13T11:01:54.920Z,93681.00
2023-06-13T11:02:55.067Z,93679.00
2023-06-13T11:03:54.983Z,93677.00
2023-06-13T11:04:55.004Z,93674.00
2023-06-13T11:05:55.058Z,93676.00
2023-06-13T11:06:55.056Z,93672.00
2023-06-13T11:07:55.107Z,93676.00
2023-06-13T11:08:55.109Z,93685.00
2023-06-13T11:09:55.154Z,93674.00
2023-06-13T11:10:55.457Z,93674.00
2023-06-13T11:11:55.308Z,93674.00
2023-06-13T11:12:55.334Z,93676.00
2023-06-13T11:13:55.339Z,93670.00
2023-06-13T11:14:55.415Z,93666.00
2023-06-13T11:15:55.944Z,93674.00
2023-06-13T11:16:55.587Z,93666.00
2023-06-13T11:17:55.608Z,93668.00
2023-06-13T11:18:55.608Z,93662.00
2023-06-13T11:19:55.671Z,93668.00
2023-06-13T11:20:55.977Z,93668.00
2023-06-13T11:21:55.731Z,93666.00
2023-06-13T11:22:55.719Z,93666.00
2023-06-13T11:23:55.752Z,93664.00
2023-06-13T11:24:55.708Z,93660.00
2023-06-13T11:25:55.946Z,93668.00
2023-06-13T11:26:55.798Z,93666.00
2023-06-13T11:27:55.877Z,93668.00
2023-06-13T11:28:55.957Z,93662.00
2023-06-13T11:29:56.462Z,93662.00
2023-06-13T11:30:56.042Z,93660.00
2023-06-13T11:31:56.238Z,93658.00
2023-06-13T11:32:56.178Z,93664.00
2023-06-13T11:33:56.189Z,93656.00
2023-06-13T11:34:56.225Z,93660.00
2023-06-13T11:35:56.243Z,93658.00
2023-06-13T11:36:56.295Z,93652.00
2023-06-13T11:37:56.319Z,93654.00
2023-06-13T11:38:56.336Z,93652.00
2023-06-13T11:40:16.926Z,93648.00
2023-06-13T11:40:57.363Z,93650.00
2023-06-13T11:41:56.408Z,93650.00
2023-06-13T11:42:56.356Z,93646.00
2023-06-13T11:43:56.348Z,93646.00
2023-06-13T11:44:56.361Z,93652.00
2023-06-13T11:45:56.344Z,93646.00
2023-06-13T11:46:56.336Z,93646.00